createdAt,value
2023-02-06T09:49:43.031Z,7.60
2023-02-06T09:52:04.129Z,7.62
2023-02-06T09:54:23.020Z,9.80
2023-02-06T09:56:52.438Z,7.78
2023-02-06T09:59:32.954Z,7.20
2023-02-06T10:01:40.289Z,5.97
2023-02-06T10:04:31.160Z,7.18
2023-02-06T10:06:42.926Z,8.07
2023-02-06T10:09:05.270Z,6.82
2023-02-06T10:11:17.519Z,8.73
2023-02-06T10:13:38.697Z,6.37
2023-02-06T10:15:46.490Z,7.75
2023-02-06T10:18:14.807Z,6.62
2023-02-06T10:20:31.693Z,6.37
2023-02-06T10:22:39.190Z,5.68
2023-02-06T10:24:54.101Z,6.07
2023-02-06T10:27:01.344Z,6.45
2023-02-06T10:29:05.183Z,8.13
2023-02-06T10:31:26.517Z,6.15
2023-02-06T10:34:01.482Z,6.82
2023-02-06T10:36:37.142Z,6.28
2023-02-06T10:39:07.840Z,6.25
2023-02-06T10:42:01.858Z,5.55
2023-02-06T10:44:29.237Z,6.10
2023-02-06T10:46:46.234Z,6.15
2023-02-06T10:49:10.227Z,6.30
2023-02-06T10:51:21.499Z,5.30
2023-02-06T10:53:34.014Z,5.62
2023-02-06T10:55:46.380Z,7.35
2023-02-06T10:58:01.651Z,5.82
2023-02-06T11:00:05.145Z,5.60
2023-02-06T11:02:16.962Z,5.82
2023-02-06T11:04:29.710Z,6.00
2023-02-06T11:06:33.210Z,5.87
2023-02-06T11:08:43.756Z,6.45
2023-02-06T11:10:46.683Z,6.03
2023-02-06T11:13:22.933Z,5.37
2023-02-06T11:15:32.870Z,7.85
2023-02-06T11:17:36.098Z,5.53
2023-02-06T11:19:42.499Z,5.85
2023-02-06T11:21:44.766Z,6.18
2023-02-06T11:23:48.021Z,6.57
2023-02-06T11:26:15.516Z,5.43
2023-02-06T11:28:20.327Z,5.78
2023-02-06T11:30:32.418Z,5.70
2023-02-06T11:32:52.785Z,6.18
2023-02-06T11:35:20.520Z,5.97
2023-02-06T11:37:36.066Z,4.75
2023-02-06T11:39:39.513Z,5.25
2023-02-06T11:42:00.506Z,5.72
2023-02-06T11:44:06.686Z,6.07
2023-02-06T11:46:23.478Z,5.62
2023-02-06T11:48:31.595Z,6.75
2023-02-06T11:50:37.307Z,6.68
2023-02-06T11:52:42.531Z,5.32
2023-02-06T11:54:54.918Z,5.37
2023-02-06T11:57:03.393Z,6.18
2023-02-06T11:59:22.996Z,5.68
2023-02-06T12:01:25.316Z,5.80
2023-02-06T12:03:33.361Z,6.10
2023-02-06T12:05:42.783Z,6.60
2023-02-06T12:08:27.073Z,6.80
2023-02-06T12:10:34.649Z,5.95
2023-02-06T12:12:42.812Z,6.55
2023-02-06T12:14:54.356Z,5.62
2023-02-06T12:17:00.706Z,6.32
2023-02-06T12:19:10.771Z,6.25
2023-02-06T12:21:37.739Z,6.20
2023-02-06T12:23:49.197Z,6.60
2023-02-06T12:25:57.351Z,6.60
2023-02-06T12:28:16.369Z,6.53
2023-02-06T12:30:34.405Z,5.95
2023-02-06T12:32:45.546Z,5.65
2023-02-06T12:37:15.900Z,7.00
2023-02-06T12:39:21.962Z,5.37
2023-02-06T12:41:54.944Z,5.60
2023-02-06T12:44:03.672Z,5.25
2023-02-06T12:46:22.735Z,5.00
2023-02-06T12:48:43.026Z,5.55
2023-02-06T12:51:11.512Z,5.75
2023-02-06T12:53:31.161Z,4.90
2023-02-06T12:55:39.046Z,5.55
2023-02-06T12:57:42.455Z,6.05
2023-02-06T12:59:59.718Z,5.78
2023-02-06T13:02:35.608Z,5.50
2023-02-06T13:04:38.400Z,5.97
2023-02-06T13:06:56.983Z,6.85
2023-02-06T13:09:16.128Z,7.60
2023-02-06T13:11:21.612Z,6.37
2023-02-06T13:13:36.653Z,6.65
2023-02-06T13:15:41.352Z,6.65
2023-02-06T13:17:44.937Z,7.30
2023-02-06T13:19:47.199Z,6.87
2023-02-06T13:22:08.001Z,5.87
2023-02-06T13:26:51.684Z,6.62
2023-02-06T13:28:57.941Z,6.78
2023-02-06T13:31:04.432Z,5.65
2023-02-06T13:33:15.959Z,7.05
2023-02-06T13:35:22.773Z,6.55
2023-02-06T13:37:48.282Z,8.02
2023-02-06T13:40:23.140Z,7.03
2023-02-06T13:42:46.439Z,5.82
2023-02-06T13:44:49.629Z,5.82
2023-02-06T13:47:15.850Z,6.25
2023-02-06T13:50:20.426Z,8.43
2023-02-06T13:52:39.654Z,5.85
2023-02-06T13:55:14.402Z,9.85
2023-02-06T13:57:45.762Z,5.82
2023-02-06T14:00:03.982Z,12.43
2023-02-06T14:02:17.089Z,5.60
2023-02-06T14:04:25.532Z,6.43
2023-02-06T14:06:30.761Z,7.22
2023-02-06T14:08:51.861Z,6.47
2023-02-06T14:11:19.389Z,7.62
2023-02-06T14:13:50.851Z,6.12
2023-02-06T14:16:33.854Z,4.70
2023-02-06T14:18:53.256Z,5.95
2023-02-06T14:21:20.079Z,5.68
2023-02-06T14:23:34.208Z,6.37
2023-02-06T14:26:15.630Z,5.62
2023-02-06T14:28:47.016Z,6.85
2023-02-06T14:30:58.833Z,5.53
2023-02-06T14:33:27.090Z,7.75
2023-02-06T14:35:55.888Z,6.20
2023-02-06T14:38:35.362Z,6.28
2023-02-06T14:40:42.695Z,6.72
2023-02-06T14:42:46.234Z,5.93
2023-02-06T14:44:57.116Z,5.70
2023-02-06T14:46:59.657Z,5.78
2023-02-06T14:49:04.029Z,5.57
2023-02-06T14:51:08.858Z,6.45
2023-02-06T14:53:25.437Z,6.15
2023-02-06T14:55:37.499Z,6.30
2023-02-06T14:57:45.041Z,6.35
2023-02-06T14:59:53.643Z,5.90
2023-02-06T15:01:58.088Z,6.60
2023-02-06T15:04:30.233Z,5.45
2023-02-06T15:06:35.511Z,4.00
2023-02-06T15:08:38.036Z,4.90
2023-02-06T15:10:40.625Z,4.85
2023-02-06T15:12:51.855Z,5.45
2023-02-06T15:15:14.202Z,6.97
2023-02-06T15:17:22.439Z,6.75
2023-02-06T15:19:28.023Z,6.93
2023-02-06T15:21:30.355Z,6.03
2023-02-06T15:24:02.938Z,5.87
2023-02-06T15:26:32.109Z,6.18
2023-02-06T15:28:36.807Z,8.18
2023-02-06T15:30:39.509Z,7.07
2023-02-06T15:32:42.109Z,6.05
2023-02-06T15:34:46.450Z,6.72
2023-02-06T15:36:49.157Z,6.57
2023-02-06T15:38:52.116Z,6.05
2023-02-06T15:41:07.249Z,9.48
2023-02-06T15:43:15.426Z,7.72
2023-02-06T15:45:28.924Z,6.85
2023-02-06T15:47:32.538Z,5.62
2023-02-06T15:49:43.696Z,7.90
2023-02-06T15:51:55.058Z,7.43
2023-02-06T15:54:24.654Z,7.30
2023-02-06T15:56:31.816Z,7.43
2023-02-06T15:58:36.545Z,7.12
2023-02-06T16:00:39.730Z,6.10
2023-02-06T16:02:42.783Z,6.55
2023-02-06T16:04:45.172Z,7.37
2023-02-06T16:07:00.845Z,6.85
2023-02-06T16:09:07.369Z,5.97
2023-02-06T16:11:30.945Z,7.60
2023-02-06T16:13:33.489Z,7.05
2023-02-06T16:15:38.698Z,6.80
2023-02-06T16:17:42.828Z,6.07
2023-02-06T16:19:54.735Z,6.43
2023-02-06T16:22:29.570Z,7.00
2023-02-06T16:24:31.958Z,6.00
2023-02-06T16:26:46.995Z,6.20
2023-02-06T16:28:57.842Z,6.75
2023-02-06T16:31:04.572Z,6.65
2023-02-06T16:33:29.450Z,7.15
2023-02-06T16:35:33.257Z,8.68
2023-02-06T16:37:35.674Z,7.80
2023-02-06T16:39:43.034Z,6.90
2023-02-06T16:41:50.995Z,7.68
2023-02-06T16:43:55.154Z,9.15
2023-02-06T16:46:00.577Z,7.95
2023-02-06T16:48:03.642Z,7.53
2023-02-06T16:50:06.084Z,7.95
2023-02-06T16:52:09.263Z,7.28
2023-02-06T16:54:24.753Z,7.68
2023-02-06T16:56:27.189Z,7.53
2023-02-06T16:58:31.880Z,7.15
2023-02-06T17:00:34.974Z,8.18
2023-02-06T17:02:37.959Z,8.02
2023-02-06T17:04:41.455Z,8.02
2023-02-06T17:06:44.441Z,8.18
2023-02-06T17:08:48.084Z,9.40
2023-02-06T17:10:50.953Z,7.43
2023-02-06T17:12:54.264Z,7.75
2023-02-06T17:14:56.795Z,8.10
2023-02-06T17:16:59.321Z,7.78
2023-02-06T17:19:02.297Z,8.52
2023-02-06T17:21:05.362Z,7.72
2023-02-06T17:23:10.980Z,7.82
2023-02-06T17:25:13.991Z,6.57
2023-02-06T17:27:21.897Z,6.87
2023-02-06T17:29:27.528Z,7.87
2023-02-06T17:31:31.142Z,8.55
2023-02-06T17:33:34.639Z,8.63
2023-02-06T17:35:38.072Z,8.25
2023-02-06T17:37:41.420Z,8.25
2023-02-06T17:39:44.066Z,9.35
2023-02-06T17:41:47.933Z,8.20
2023-02-06T17:43:51.155Z,8.50
2023-02-06T17:45:54.633Z,8.70
2023-02-06T17:47:58.065Z,10.15
2023-02-06T17:50:01.260Z,10.05
2023-02-06T17:52:04.295Z,7.60
2023-02-06T17:54:07.148Z,8.30
2023-02-06T17:56:13.122Z,7.55
2023-02-06T17:58:15.648Z,16.45
2023-02-06T18:00:20.374Z,10.32
2023-02-06T18:02:23.213Z,8.10
2023-02-06T18:04:25.852Z,7.95
2023-02-06T18:06:32.684Z,8.40
2023-02-06T18:08:35.712Z,7.85
2023-02-06T18:10:39.601Z,8.32
2023-02-06T18:12:43.533Z,8.82
2023-02-06T18:14:49.463Z,8.15
2023-02-06T18:16:52.396Z,15.45
2023-02-06T18:18:55.601Z,10.52
2023-02-06T18:20:59.503Z,10.13
2023-02-06T18:23:03.123Z,9.93
2023-02-06T18:25:06.863Z,9.57
2023-02-06T18:27:11.877Z,10.35
2023-02-06T18:29:14.792Z,10.10
2023-02-06T18:31:30.827Z,11.27
2023-02-06T18:33:38.017Z,8.73
2023-02-06T18:35:44.468Z,10.85
2023-02-06T18:37:48.360Z,10.70
2023-02-06T18:39:51.569Z,10.70
2023-02-06T18:42:13.541Z,10.48
2023-02-06T18:44:16.990Z,9.43
2023-02-06T18:46:20.801Z,11.30
2023-02-06T18:48:24.754Z,10.60
2023-02-06T18:50:28.306Z,9.73
2023-02-06T18:52:32.574Z,9.95
2023-02-06T18:54:36.830Z,10.50
2023-02-06T18:56:40.315Z,10.23
2023-02-06T18:58:43.966Z,10.35
2023-02-06T19:00:47.694Z,9.77
2023-02-06T19:02:50.968Z,10.23
2023-02-06T19:04:58.588Z,9.75
2023-02-06T19:07:02.167Z,11.48
2023-02-06T19:09:07.636Z,10.18
2023-02-06T19:11:11.752Z,9.63
2023-02-06T19:13:17.033Z,11.52
2023-02-06T19:15:22.094Z,8.95
2023-02-06T19:17:26.802Z,10.02
2023-02-06T19:19:31.727Z,11.07
2023-02-06T19:21:35.227Z,10.68
2023-02-06T19:23:40.008Z,11.27
2023-02-06T19:25:44.861Z,12.93
2023-02-06T19:27:50.459Z,12.45
2023-02-06T19:29:58.666Z,12.37
2023-02-06T19:32:02.283Z,10.10
2023-02-06T19:34:05.737Z,12.50
2023-02-06T19:36:15.038Z,12.07
2023-02-06T19:38:17.855Z,11.23
2023-02-06T19:40:21.641Z,13.05
2023-02-06T19:42:25.253Z,12.30
2023-02-06T19:44:32.453Z,13.25
2023-02-06T19:46:40.158Z,10.85
2023-02-06T19:48:46.152Z,10.75
2023-02-06T19:50:49.873Z,10.60
2023-02-06T19:52:53.670Z,11.68
2023-02-06T19:54:57.845Z,11.38
2023-02-06T19:57:02.506Z,10.38
2023-02-06T19:59:18.586Z,10.80
2023-02-06T20:01:23.529Z,10.68
2023-02-06T20:03:28.867Z,9.30
2023-02-06T20:05:35.485Z,10.13
2023-02-06T20:07:38.969Z,9.55
2023-02-06T20:09:46.530Z,9.70
2023-02-06T20:11:50.462Z,9.93
2023-02-06T20:13:55.691Z,10.90
2023-02-06T20:16:03.900Z,8.85
2023-02-06T20:18:08.607Z,8.60
2023-02-06T20:20:12.907Z,9.13
2023-02-06T20:22:16.976Z,9.65
2023-02-06T20:24:26.599Z,9.23
2023-02-06T20:26:35.903Z,9.63
2023-02-06T20:28:40.862Z,9.57
2023-02-06T20:30:45.609Z,8.85
2023-02-06T20:32:50.327Z,8.80
2023-02-06T20:34:58.316Z,9.02
2023-02-06T20:37:03.449Z,9.65
2023-02-06T20:39:06.555Z,10.98
2023-02-06T20:41:11.080Z,9.45
2023-02-06T20:43:14.456Z,9.43
2023-02-06T20:45:17.417Z,11.20
2023-02-06T20:47:20.324Z,8.32
2023-02-06T20:49:27.390Z,8.13
2023-02-06T20:51:31.097Z,9.55
2023-02-06T20:53:34.302Z,9.48
2023-02-06T20:55:46.218Z,10.05
2023-02-06T20:57:49.367Z,9.40
2023-02-06T20:59:53.320Z,8.52
2023-02-06T21:01:56.665Z,8.15
2023-02-06T21:04:04.523Z,9.13
2023-02-06T21:06:08.303Z,9.25
2023-02-06T21:08:11.638Z,8.13
2023-02-06T21:10:15.199Z,9.77
2023-02-06T21:12:18.506Z,9.13
2023-02-06T21:14:21.620Z,8.90
2023-02-06T21:16:25.235Z,8.25
2023-02-06T21:18:30.955Z,9.73
2023-02-06T21:20:33.641Z,8.10
2023-02-06T21:22:36.268Z,9.02
2023-02-06T21:24:39.126Z,8.07
2023-02-06T21:26:41.669Z,8.18
2023-02-06T21:28:46.566Z,9.10
2023-02-06T21:30:50.332Z,9.15
2023-02-06T21:32:55.201Z,10.45
2023-02-06T21:34:57.603Z,8.75
2023-02-06T21:37:00.203Z,7.87
2023-02-06T21:39:03.692Z,8.80
2023-02-06T21:41:08.012Z,8.13
2023-02-06T21:43:11.140Z,8.95
2023-02-06T21:45:13.766Z,8.13
2023-02-06T21:47:16.092Z,8.18
2023-02-06T21:49:19.709Z,9.40
2023-02-06T21:51:23.180Z,8.85
2023-02-06T21:53:25.590Z,8.05
2023-02-06T21:55:31.536Z,10.25
2023-02-06T21:57:33.963Z,8.93
2023-02-06T21:59:37.971Z,8.43
2023-02-06T22:01:41.279Z,9.02
2023-02-06T22:03:45.350Z,8.20
2023-02-06T22:05:47.696Z,9.73
2023-02-06T22:07:50.121Z,10.20
2023-02-06T22:09:52.724Z,8.95
2023-02-06T22:11:55.815Z,9.52
2023-02-06T22:14:01.097Z,8.57
2023-02-06T22:16:03.960Z,8.95
2023-02-06T22:18:06.380Z,9.80
2023-02-06T22:20:08.917Z,9.40
2023-02-06T22:22:12.619Z,8.88
2023-02-06T22:24:15.110Z,9.55
2023-02-06T22:26:19.499Z,8.50
2023-02-06T22:28:22.198Z,8.95
2023-02-06T22:30:24.714Z,8.82
2023-02-06T22:32:27.200Z,8.07
2023-02-06T22:34:31.590Z,8.68
2023-02-06T22:36:33.980Z,8.75
2023-02-06T22:38:37.304Z,8.43
2023-02-06T22:40:40.010Z,9.65
2023-02-06T22:42:42.309Z,8.63
2023-02-06T22:44:44.651Z,8.80
2023-02-06T22:46:51.596Z,7.80
2023-02-06T22:48:54.226Z,9.05
2023-02-06T22:50:56.980Z,9.10
2023-02-06T22:53:17.846Z,9.05
2023-02-06T22:55:20.335Z,7.72
2023-02-06T22:57:23.808Z,9.10
2023-02-06T22:59:26.497Z,9.93
2023-02-06T23:01:39.031Z,9.00
2023-02-06T23:03:41.464Z,9.02
2023-02-06T23:05:44.066Z,9.80
2023-02-06T23:07:46.362Z,10.38
2023-02-06T23:09:48.673Z,9.00
2023-02-06T23:11:52.111Z,8.88
2023-02-06T23:13:57.162Z,9.75
2023-02-06T23:16:00.163Z,9.32
2023-02-06T23:18:02.792Z,10.20
2023-02-06T23:20:06.918Z,11.07
2023-02-06T23:22:10.676Z,9.57
2023-02-06T23:24:14.451Z,9.65
2023-02-06T23:26:18.671Z,10.40
2023-02-06T23:28:22.304Z,10.70
2023-02-06T23:30:25.694Z,10.98
2023-02-06T23:32:28.044Z,11.02
2023-02-06T23:34:30.384Z,9.68
2023-02-06T23:36:33.069Z,10.38
2023-02-06T23:38:35.731Z,10.13
2023-02-06T23:40:38.721Z,10.30
2023-02-06T23:42:41.327Z,11.12
2023-02-06T23:44:43.600Z,9.43
2023-02-06T23:46:46.189Z,11.05
2023-02-06T23:48:49.749Z,10.13
2023-02-06T23:50:52.287Z,9.95
2023-02-06T23:52:54.850Z,10.93
2023-02-06T23:54:57.465Z,10.00
